createdAt,value
2023-01-27T00:00:54.523Z,74.77
2023-01-27T00:03:22.971Z,75.54
2023-01-27T00:05:51.229Z,75.07
2023-01-27T00:08:19.885Z,75.28
2023-01-27T00:11:07.920Z,75.63
2023-01-27T00:13:34.939Z,75.78
2023-01-27T00:16:04.475Z,76.13
2023-01-27T00:18:32.594Z,76.40
2023-01-27T00:21:18.165Z,76.21
2023-01-27T00:24:03.579Z,76.41
2023-01-27T00:26:31.648Z,75.98
2023-01-27T00:28:59.739Z,75.30
2023-01-27T00:31:46.686Z,74.99
2023-01-27T00:34:14.767Z,75.67
2023-01-27T00:36:43.556Z,75.19
2023-01-27T00:39:13.810Z,75.20
2023-01-27T00:41:44.803Z,75.64
2023-01-27T00:44:13.670Z,75.17
2023-01-27T00:46:44.045Z,75.29
2023-01-27T00:49:13.448Z,75.73
2023-01-27T00:51:41.736Z,75.06
2023-01-27T00:54:10.071Z,75.67
2023-01-27T00:56:39.507Z,75.42
2023-01-27T00:59:07.859Z,75.30
2023-01-27T01:01:36.170Z,74.68
2023-01-27T01:04:05.804Z,74.96
2023-01-27T01:06:33.861Z,74.36
2023-01-27T01:09:01.896Z,75.13
2023-01-27T01:11:29.991Z,74.53
2023-01-27T01:13:58.200Z,74.62
2023-01-27T01:16:27.089Z,74.60
2023-01-27T01:18:55.397Z,74.71
2023-01-27T01:21:24.913Z,74.38
2023-01-27T01:23:52.951Z,73.98
2023-01-27T01:26:21.020Z,74.50
2023-01-27T01:28:49.122Z,74.65
2023-01-27T01:31:19.071Z,74.16
2023-01-27T01:33:48.289Z,73.89
2023-01-27T01:36:18.383Z,74.75
2023-01-27T01:38:48.532Z,73.99
2023-01-27T01:41:19.980Z,73.74
2023-01-27T01:43:48.539Z,73.63
2023-01-27T01:46:17.183Z,74.26
2023-01-27T01:48:48.647Z,74.18
2023-01-27T01:51:21.339Z,74.71
2023-01-27T01:53:55.731Z,74.80
2023-01-27T01:56:27.055Z,75.16
2023-01-27T01:58:58.935Z,74.71
2023-01-27T02:01:27.006Z,75.14
2023-01-27T02:03:59.465Z,75.00
2023-01-27T02:06:27.709Z,74.76
2023-01-27T02:09:00.749Z,74.51
2023-01-27T02:11:30.206Z,74.19
2023-01-27T02:14:01.911Z,74.62
2023-01-27T02:16:31.208Z,74.86
2023-01-27T02:18:59.641Z,73.98
2023-01-27T02:21:27.714Z,74.08
2023-01-27T02:24:02.035Z,74.30
2023-01-27T02:26:34.687Z,73.59
2023-01-27T02:29:07.392Z,74.30
2023-01-27T02:31:35.974Z,74.60
2023-01-27T02:34:08.312Z,74.25
2023-01-27T02:36:40.815Z,74.74
2023-01-27T02:39:11.648Z,73.78
2023-01-27T02:41:44.461Z,73.72
2023-01-27T02:44:13.319Z,74.41
2023-01-27T02:46:41.412Z,74.39
2023-01-27T02:49:09.520Z,73.90
2023-01-27T02:51:37.779Z,74.52
2023-01-27T02:54:06.986Z,74.40
2023-01-27T02:56:35.266Z,74.53
2023-01-27T02:59:05.002Z,74.41
2023-01-27T03:01:38.025Z,74.93
2023-01-27T03:04:06.257Z,75.10
2023-01-27T03:06:35.457Z,74.89
2023-01-27T03:09:03.506Z,74.49
2023-01-27T03:11:49.178Z,74.18
2023-01-27T03:14:18.694Z,74.03
2023-01-27T03:17:06.592Z,74.03
2023-01-27T03:19:34.737Z,74.10
2023-01-27T03:22:04.682Z,73.81
2023-01-27T03:24:35.169Z,73.42
2023-01-27T03:27:07.017Z,73.28
2023-01-27T03:29:56.416Z,73.66
2023-01-27T03:32:25.759Z,74.14
2023-01-27T03:35:14.539Z,73.77
2023-01-27T03:38:02.198Z,73.95
2023-01-27T03:40:47.963Z,74.53
2023-01-27T03:43:33.552Z,74.37
2023-01-27T03:46:22.392Z,74.44
2023-01-27T03:48:52.461Z,74.57
2023-01-27T03:51:21.827Z,74.38
2023-01-27T03:53:50.206Z,74.47
2023-01-27T03:56:19.915Z,74.32
2023-01-27T03:58:49.762Z,74.64
2023-01-27T04:01:22.345Z,74.79
2023-01-27T04:04:09.410Z,74.78
2023-01-27T04:07:02.922Z,74.84
2023-01-27T04:09:33.070Z,74.18
2023-01-27T04:12:02.220Z,75.26
2023-01-27T04:14:32.112Z,74.98
2023-01-27T04:17:04.008Z,75.13
2023-01-27T04:19:32.469Z,75.34
2023-01-27T04:22:02.173Z,74.57
2023-01-27T04:24:30.491Z,74.70
2023-01-27T04:27:00.621Z,74.87
2023-01-27T04:29:30.382Z,75.00
2023-01-27T04:31:59.072Z,74.77
2023-01-27T04:34:29.175Z,74.54
2023-01-27T04:36:57.792Z,74.83
2023-01-27T04:39:26.549Z,75.18
2023-01-27T04:41:54.492Z,75.29
2023-01-27T04:44:22.455Z,75.36
2023-01-27T04:46:51.281Z,74.90
2023-01-27T04:49:19.688Z,74.96
2023-01-27T04:51:49.400Z,75.32
2023-01-27T04:54:17.797Z,74.27
2023-01-27T04:56:56.940Z,74.78
2023-01-27T04:59:25.159Z,75.52
2023-01-27T05:01:53.201Z,75.82
2023-01-27T05:04:21.563Z,75.86
2023-01-27T05:06:51.092Z,75.08
2023-01-27T05:09:19.169Z,76.00
2023-01-27T05:11:47.165Z,76.08
2023-01-27T05:14:15.244Z,75.88
2023-01-27T05:16:43.376Z,75.67
2023-01-27T05:19:11.381Z,75.37
2023-01-27T05:21:39.369Z,74.21
2023-01-27T05:24:09.036Z,74.53
2023-01-27T05:26:37.093Z,74.67
2023-01-27T05:29:05.074Z,75.25
2023-01-27T05:31:33.386Z,75.13
2023-01-27T05:34:02.903Z,74.26
2023-01-27T05:36:31.603Z,74.67
2023-01-27T05:39:00.614Z,74.43
2023-01-27T05:41:32.163Z,73.39
2023-01-27T05:44:00.285Z,72.91
2023-01-27T05:46:30.330Z,73.36
2023-01-27T05:49:01.586Z,73.72
2023-01-27T05:51:32.287Z,73.25
2023-01-27T05:54:00.660Z,73.48
2023-01-27T05:56:30.279Z,73.80
2023-01-27T05:58:59.560Z,73.61
2023-01-27T06:01:29.370Z,73.38
2023-01-27T06:03:57.717Z,73.14
2023-01-27T06:06:27.287Z,73.92
2023-01-27T06:08:55.455Z,73.88
2023-01-27T06:11:24.350Z,73.69
2023-01-27T06:13:54.957Z,73.70
2023-01-27T06:16:24.446Z,72.78
2023-01-27T06:18:52.770Z,73.35
2023-01-27T06:21:21.263Z,72.76
2023-01-27T06:23:49.793Z,73.39
2023-01-27T06:26:20.518Z,73.14
2023-01-27T06:28:48.868Z,73.13
2023-01-27T06:31:22.140Z,72.93
2023-01-27T06:33:50.647Z,73.74
2023-01-27T06:36:19.924Z,73.49
2023-01-27T06:38:49.084Z,72.99
2023-01-27T06:41:17.163Z,72.36
2023-01-27T06:43:45.145Z,72.48
2023-01-27T06:46:13.421Z,71.54
2023-01-27T06:48:42.998Z,71.47
2023-01-27T06:51:11.242Z,71.17
2023-01-27T06:53:39.241Z,71.42
2023-01-27T06:56:07.828Z,70.97
2023-01-27T06:58:35.948Z,71.20
2023-01-27T07:01:06.532Z,71.16
2023-01-27T07:03:37.625Z,71.01
2023-01-27T07:06:07.818Z,70.72
2023-01-27T07:08:35.871Z,70.86
2023-01-27T07:11:05.602Z,70.99
2023-01-27T07:13:33.645Z,71.36
2023-01-27T07:16:01.645Z,71.21
2023-01-27T07:18:29.973Z,70.73
2023-01-27T07:20:57.955Z,71.08
2023-01-27T07:23:27.293Z,70.52
2023-01-27T07:25:55.500Z,70.54
2023-01-27T07:28:23.554Z,71.37
2023-01-27T07:30:51.672Z,71.02
2023-01-27T07:33:19.646Z,70.40
2023-01-27T07:35:50.439Z,69.98
2023-01-27T07:38:18.576Z,70.74
2023-01-27T07:40:47.991Z,70.47
2023-01-27T07:43:15.987Z,70.35
2023-01-27T07:45:48.858Z,70.76
2023-01-27T07:48:17.402Z,70.66
2023-01-27T07:50:45.359Z,70.98
2023-01-27T07:53:13.444Z,70.97
2023-01-27T07:55:41.456Z,70.73
2023-01-27T07:58:11.233Z,69.88
2023-01-27T08:00:39.498Z,70.55
2023-01-27T08:03:07.596Z,70.45
2023-01-27T08:05:38.506Z,70.92
2023-01-27T08:08:07.019Z,70.72
2023-01-27T08:10:34.981Z,70.67
2023-01-27T08:13:03.003Z,70.58
2023-01-27T08:15:32.396Z,70.59
2023-01-27T08:18:01.809Z,70.29
2023-01-27T08:20:30.666Z,70.57
2023-01-27T08:22:58.612Z,71.00
2023-01-27T08:25:26.925Z,70.29
2023-01-27T08:27:56.617Z,70.67
2023-01-27T08:30:25.087Z,70.85
2023-01-27T08:32:54.882Z,70.99
2023-01-27T08:35:22.932Z,70.80
2023-01-27T08:37:51.644Z,71.10
2023-01-27T08:40:19.938Z,70.59
2023-01-27T08:42:47.927Z,70.52
2023-01-27T08:45:15.956Z,70.18
2023-01-27T08:47:44.058Z,70.20
2023-01-27T08:50:14.066Z,69.86
2023-01-27T08:52:42.494Z,69.96
2023-01-27T08:55:10.620Z,70.26
2023-01-27T08:57:38.912Z,70.01
2023-01-27T09:00:08.690Z,70.35
2023-01-27T09:02:36.935Z,70.20
2023-01-27T09:05:05.155Z,69.65
2023-01-27T09:07:35.447Z,69.08
2023-01-27T09:10:14.035Z,69.31
2023-01-27T09:12:43.943Z,69.48
2023-01-27T09:15:13.422Z,69.21
2023-01-27T09:17:42.298Z,69.94
2023-01-27T09:20:12.115Z,69.70
2023-01-27T09:22:42.392Z,70.19
2023-01-27T09:25:15.059Z,69.46
2023-01-27T09:27:43.091Z,69.04
2023-01-27T09:30:13.512Z,68.95
2023-01-27T09:32:42.183Z,68.61
2023-01-27T09:35:11.477Z,69.01
2023-01-27T09:37:46.032Z,68.74
2023-01-27T09:40:24.518Z,69.36
2023-01-27T09:43:16.485Z,68.93
2023-01-27T09:46:08.562Z,69.02
2023-01-27T09:48:53.489Z,69.30
2023-01-27T09:51:29.746Z,68.93
2023-01-27T09:54:12.372Z,68.53
2023-01-27T09:56:47.852Z,68.91
2023-01-27T09:59:39.999Z,69.38
2023-01-27T10:02:21.310Z,69.85
2023-01-27T10:05:18.303Z,68.64
2023-01-27T10:08:02.276Z,69.32
2023-01-27T10:10:46.505Z,70.27
2023-01-27T10:13:28.855Z,69.90
2023-01-27T10:16:11.276Z,69.83
2023-01-27T10:18:55.777Z,70.10
2023-01-27T10:21:31.668Z,70.10
2023-01-27T10:24:08.428Z,69.53
2023-01-27T10:26:42.610Z,69.50
2023-01-27T10:29:13.065Z,69.93
2023-01-27T10:31:49.712Z,70.21
2023-01-27T10:34:25.394Z,70.57
2023-01-27T10:37:05.032Z,69.95
2023-01-27T10:39:44.240Z,69.40
2023-01-27T10:42:26.230Z,69.17
2023-01-27T10:45:12.037Z,69.02
2023-01-27T10:47:57.186Z,68.35
2023-01-27T10:50:30.754Z,68.17
2023-01-27T10:53:03.057Z,68.94
2023-01-27T10:55:39.093Z,68.19
2023-01-27T10:58:16.336Z,68.33
2023-01-27T11:01:18.093Z,67.79
2023-01-27T11:03:41.278Z,68.02
2023-01-27T11:06:15.519Z,67.97
2023-01-27T11:08:47.943Z,67.86
2023-01-27T11:11:36.204Z,67.95
2023-01-27T11:14:16.073Z,68.15
2023-01-27T11:16:47.732Z,68.61
2023-01-27T11:19:24.905Z,68.10
2023-01-27T11:22:06.543Z,68.15
2023-01-27T11:24:44.875Z,68.14
2023-01-27T11:27:21.029Z,67.66
2023-01-27T11:29:56.328Z,66.77
2023-01-27T11:32:34.835Z,67.72
2023-01-27T11:35:06.118Z,67.75
2023-01-27T11:37:38.483Z,68.04
2023-01-27T11:40:16.197Z,67.68
2023-01-27T11:42:44.829Z,67.02
2023-01-27T11:45:18.104Z,67.07
2023-01-27T11:47:48.358Z,67.88
2023-01-27T11:50:18.481Z,67.04
2023-01-27T11:52:50.697Z,67.21
2023-01-27T11:55:22.676Z,66.79
2023-01-27T11:57:53.917Z,67.70
2023-01-27T12:00:26.521Z,67.50
2023-01-27T12:03:02.260Z,67.15
2023-01-27T12:05:34.742Z,68.05
2023-01-27T12:08:04.654Z,67.28
2023-01-27T12:10:34.603Z,66.73
2023-01-27T12:13:09.752Z,66.70
2023-01-27T12:15:48.514Z,66.68
2023-01-27T12:18:17.255Z,66.39
2023-01-27T12:20:47.313Z,66.45
2023-01-27T12:23:23.324Z,65.99
2023-01-27T12:25:55.895Z,66.16
2023-01-27T12:28:31.069Z,65.54
2023-01-27T12:31:07.072Z,65.90
2023-01-27T12:33:37.546Z,66.79
2023-01-27T12:36:15.400Z,65.70
2023-01-27T12:38:49.894Z,66.10
2023-01-27T12:41:24.964Z,66.08
2023-01-27T12:43:55.841Z,65.31
2023-01-27T12:46:26.805Z,65.76
2023-01-27T12:49:02.660Z,66.10
2023-01-27T12:51:41.166Z,65.33
2023-01-27T12:54:22.925Z,65.48
2023-01-27T12:56:52.431Z,65.39
2023-01-27T12:59:22.426Z,65.62
2023-01-27T13:02:03.430Z,65.93
2023-01-27T13:04:31.809Z,66.38
2023-01-27T13:07:08.148Z,66.13
2023-01-27T13:09:39.757Z,66.11
2023-01-27T13:12:17.755Z,66.04
2023-01-27T13:14:45.837Z,66.66
2023-01-27T13:17:37.004Z,65.86
2023-01-27T13:20:15.004Z,66.90
2023-01-27T13:22:46.525Z,66.55
2023-01-27T13:25:20.335Z,66.29
2023-01-27T13:27:50.963Z,65.75
2023-01-27T13:30:28.206Z,66.81
2023-01-27T13:33:04.345Z,66.57
2023-01-27T13:35:38.218Z,67.07
2023-01-27T13:38:17.355Z,67.33
2023-01-27T13:40:47.731Z,67.40
2023-01-27T13:43:23.537Z,67.37
2023-01-27T13:45:55.718Z,67.19
2023-01-27T13:48:30.750Z,66.67
2023-01-27T13:51:07.867Z,67.37
2023-01-27T13:53:36.556Z,66.68
2023-01-27T13:56:18.073Z,67.19
2023-01-27T13:58:55.023Z,67.09
2023-01-27T14:01:27.194Z,67.83
2023-01-27T14:04:37.362Z,67.20
2023-01-27T14:07:19.414Z,67.35
2023-01-27T14:09:59.719Z,67.06
2023-01-27T14:12:42.542Z,67.21
2023-01-27T14:15:24.344Z,67.15
2023-01-27T14:17:58.479Z,67.17
2023-01-27T14:20:42.388Z,67.51
2023-01-27T14:23:23.568Z,67.15
2023-01-27T14:26:04.265Z,67.33
2023-01-27T14:28:41.924Z,68.39
2023-01-27T14:31:15.050Z,68.00
2023-01-27T14:33:54.828Z,68.24
2023-01-27T14:36:29.576Z,68.54
2023-01-27T14:39:04.608Z,69.21
2023-01-27T14:41:39.448Z,68.75
2023-01-27T14:44:17.100Z,69.22
2023-01-27T14:46:59.042Z,69.69
2023-01-27T14:49:42.053Z,69.11
2023-01-27T14:52:24.589Z,69.54
2023-01-27T14:55:25.941Z,70.44
2023-01-27T14:58:01.184Z,70.01
2023-01-27T15:00:42.657Z,69.86
2023-01-27T15:03:34.202Z,70.77
2023-01-27T15:06:07.151Z,71.05
2023-01-27T15:08:43.911Z,70.45
2023-01-27T15:11:40.080Z,70.40
2023-01-27T15:14:24.403Z,70.39
2023-01-27T15:17:12.201Z,69.99
2023-01-27T15:19:56.859Z,70.69
2023-01-27T15:22:56.436Z,70.64
2023-01-27T15:25:35.063Z,70.64
2023-01-27T15:28:04.519Z,70.62
2023-01-27T15:30:37.530Z,70.75
2023-01-27T15:33:44.488Z,70.46
2023-01-27T15:36:33.349Z,70.81
2023-01-27T15:39:26.001Z,71.92
2023-01-27T15:42:16.620Z,71.84
2023-01-27T15:45:00.896Z,71.55
2023-01-27T15:47:31.258Z,71.38
2023-01-27T15:50:15.534Z,71.90
2023-01-27T15:52:46.048Z,71.42
2023-01-27T15:55:27.304Z,72.33
2023-01-27T15:58:06.332Z,71.81
2023-01-27T16:00:38.017Z,72.04
2023-01-27T16:03:15.999Z,72.75
2023-01-27T16:05:47.072Z,72.51
2023-01-27T16:08:17.276Z,72.84
2023-01-27T16:10:45.582Z,74.06
2023-01-27T16:13:23.267Z,73.86
2023-01-27T16:15:51.625Z,73.39
2023-01-27T16:18:26.474Z,74.22
2023-01-27T16:21:02.453Z,73.34
2023-01-27T16:23:39.345Z,73.40
2023-01-27T16:26:30.464Z,73.57
2023-01-27T16:29:07.510Z,72.85
2023-01-27T16:31:38.042Z,72.35
2023-01-27T16:34:16.179Z,72.22
2023-01-27T16:36:44.283Z,72.93
2023-01-27T16:39:28.310Z,72.59
2023-01-27T16:41:59.545Z,72.20
2023-01-27T16:44:34.733Z,72.68
2023-01-27T16:47:16.446Z,72.60
2023-01-27T16:49:46.165Z,72.39
2023-01-27T16:52:21.251Z,72.30
2023-01-27T16:54:55.595Z,72.32
2023-01-27T16:57:34.516Z,72.19
2023-01-27T17:00:08.385Z,72.01
2023-01-27T17:02:37.076Z,73.25
2023-01-27T17:05:14.743Z,73.06
2023-01-27T17:07:48.145Z,73.73
2023-01-27T17:10:33.017Z,73.30
2023-01-27T17:13:02.177Z,72.85
2023-01-27T17:15:37.654Z,72.57
2023-01-27T17:18:10.292Z,72.30
2023-01-27T17:20:42.203Z,72.91
2023-01-27T17:23:23.334Z,72.67
2023-01-27T17:25:51.957Z,72.75
2023-01-27T17:28:26.546Z,72.01
2023-01-27T17:31:06.379Z,72.18
2023-01-27T17:33:36.992Z,72.86
2023-01-27T17:36:10.228Z,72.06
2023-01-27T17:38:46.431Z,72.88
2023-01-27T17:41:35.613Z,72.53
2023-01-27T17:44:05.340Z,72.53
2023-01-27T17:46:35.671Z,72.08
2023-01-27T17:49:07.019Z,72.35
2023-01-27T17:51:38.454Z,72.22
2023-01-27T17:54:20.575Z,72.75
2023-01-27T17:56:50.611Z,72.24
2023-01-27T17:59:22.208Z,72.38
2023-01-27T18:01:54.432Z,72.36
2023-01-27T18:04:23.786Z,72.03
2023-01-27T18:06:52.737Z,72.36
2023-01-27T18:09:25.203Z,72.36
2023-01-27T18:11:56.258Z,72.01
2023-01-27T18:14:24.894Z,72.06
2023-01-27T18:17:02.830Z,72.30
2023-01-27T18:19:30.941Z,72.51
2023-01-27T18:22:12.502Z,72.51
2023-01-27T18:24:41.449Z,72.69
2023-01-27T18:27:28.507Z,72.97
2023-01-27T18:30:02.664Z,72.73
2023-01-27T18:32:39.545Z,72.31
2023-01-27T18:35:26.584Z,72.28
2023-01-27T18:37:58.439Z,72.60
2023-01-27T18:40:30.797Z,72.80
2023-01-27T18:43:00.588Z,72.96
2023-01-27T18:45:29.196Z,72.77
2023-01-27T18:47:59.577Z,72.98
2023-01-27T18:50:29.013Z,72.82
2023-01-27T18:52:57.445Z,73.16
2023-01-27T18:55:26.936Z,72.64
2023-01-27T18:57:56.525Z,72.54
2023-01-27T19:00:26.081Z,72.63
2023-01-27T19:02:59.111Z,72.65
2023-01-27T19:05:30.478Z,72.39
2023-01-27T19:07:58.671Z,72.63
2023-01-27T19:10:29.466Z,72.77
2023-01-27T19:12:59.366Z,73.32
2023-01-27T19:15:29.405Z,72.98
2023-01-27T19:17:59.574Z,73.71
2023-01-27T19:20:31.150Z,73.56
2023-01-27T19:23:00.249Z,73.34
2023-01-27T19:25:31.336Z,73.50
2023-01-27T19:28:04.669Z,73.79
2023-01-27T19:30:36.205Z,73.66
2023-01-27T19:33:05.892Z,72.71
2023-01-27T19:35:36.667Z,72.80
2023-01-27T19:38:05.941Z,73.09
2023-01-27T19:40:34.435Z,73.65
2023-01-27T19:43:02.575Z,73.47
2023-01-27T19:45:30.556Z,73.82
2023-01-27T19:47:59.891Z,73.51
2023-01-27T19:50:30.714Z,73.34
2023-01-27T19:53:00.111Z,72.50
2023-01-27T19:55:28.184Z,73.11
2023-01-27T19:57:56.129Z,73.18
2023-01-27T20:00:26.874Z,73.20
2023-01-27T20:02:55.206Z,72.55
2023-01-27T20:05:24.107Z,73.02
2023-01-27T20:07:53.607Z,73.72
2023-01-27T20:10:25.686Z,73.32
2023-01-27T20:12:55.735Z,73.52
2023-01-27T20:15:24.532Z,73.39
2023-01-27T20:17:53.673Z,73.23
2023-01-27T20:20:22.633Z,73.35
2023-01-27T20:22:50.684Z,72.70
2023-01-27T20:25:20.871Z,73.24
2023-01-27T20:27:51.996Z,73.14
2023-01-27T20:30:20.964Z,72.87
2023-01-27T20:32:48.942Z,72.81
2023-01-27T20:35:18.826Z,72.87
2023-01-27T20:37:48.651Z,73.09
2023-01-27T20:40:18.550Z,73.45
2023-01-27T20:42:46.583Z,73.37
2023-01-27T20:45:16.575Z,73.38
2023-01-27T20:47:48.855Z,73.91
2023-01-27T20:50:17.411Z,73.55
2023-01-27T20:52:47.778Z,72.92
2023-01-27T20:55:16.750Z,72.96
2023-01-27T20:57:45.012Z,73.51
2023-01-27T21:00:19.346Z,73.19
2023-01-27T21:02:47.891Z,72.69
2023-01-27T21:05:16.478Z,73.51
2023-01-27T21:07:44.859Z,73.26
2023-01-27T21:10:13.334Z,72.88
2023-01-27T21:12:41.408Z,73.26
2023-01-27T21:15:11.019Z,73.16
2023-01-27T21:17:40.405Z,73.33
2023-01-27T21:20:10.002Z,74.18
2023-01-27T21:22:37.990Z,73.99
2023-01-27T21:25:06.671Z,74.47
2023-01-27T21:27:35.916Z,74.51
2023-01-27T21:30:03.936Z,74.40
2023-01-27T21:32:31.981Z,73.98
2023-01-27T21:35:01.386Z,74.20
2023-01-27T21:37:29.335Z,73.59
2023-01-27T21:39:57.331Z,73.52
2023-01-27T21:42:42.947Z,73.16
2023-01-27T21:45:15.317Z,74.17
2023-01-27T21:47:44.140Z,74.04
2023-01-27T21:50:14.951Z,74.77
2023-01-27T21:52:45.546Z,74.44
2023-01-27T21:55:16.411Z,74.05
2023-01-27T21:57:46.172Z,74.25
2023-01-27T22:00:16.615Z,73.97
2023-01-27T22:02:44.936Z,74.29
2023-01-27T22:05:14.611Z,74.96
2023-01-27T22:07:42.838Z,74.65
2023-01-27T22:10:15.794Z,74.90
2023-01-27T22:12:44.126Z,74.51
2023-01-27T22:15:14.385Z,75.32
2023-01-27T22:17:42.807Z,75.59
2023-01-27T22:20:15.563Z,74.55
2023-01-27T22:22:44.320Z,74.47
2023-01-27T22:25:15.411Z,74.61
2023-01-27T22:27:44.019Z,73.98
2023-01-27T22:30:14.468Z,74.24
2023-01-27T22:32:42.504Z,74.38
2023-01-27T22:35:11.969Z,73.66
2023-01-27T22:37:41.675Z,73.70
2023-01-27T22:40:11.340Z,73.08
2023-01-27T22:42:40.119Z,73.72
2023-01-27T22:45:09.987Z,73.72
2023-01-27T22:47:38.053Z,73.37
2023-01-27T22:50:06.614Z,74.11
2023-01-27T22:52:36.126Z,73.76
2023-01-27T22:55:05.765Z,74.27
2023-01-27T22:57:34.106Z,74.42
2023-01-27T23:00:02.364Z,74.62
2023-01-27T23:02:30.716Z,74.17
2023-01-27T23:04:58.871Z,74.24
2023-01-27T23:07:27.104Z,74.87
2023-01-27T23:09:55.104Z,75.11
2023-01-27T23:12:24.474Z,74.92
2023-01-27T23:14:52.440Z,75.80
2023-01-27T23:17:20.437Z,76.22
2023-01-27T23:19:48.400Z,75.82
2023-01-27T23:22:16.452Z,75.51
2023-01-27T23:24:44.453Z,76.31
2023-01-27T23:27:12.432Z,75.96
2023-01-27T23:29:41.864Z,75.92
2023-01-27T23:32:09.806Z,75.36
2023-01-27T23:34:37.796Z,75.03
2023-01-27T23:37:05.843Z,75.02
2023-01-27T23:39:33.834Z,75.26
2023-01-27T23:42:01.803Z,75.36
2023-01-27T23:44:29.783Z,75.88
2023-01-27T23:46:59.170Z,75.62
2023-01-27T23:49:27.115Z,75.38
2023-01-27T23:51:55.108Z,75.19
2023-01-27T23:54:23.065Z,75.63
2023-01-27T23:56:51.461Z,75.67
2023-01-27T23:59:19.474Z,75.59
